Cherokee, Iowa
Current Conditions -  °F | °C
As of 12:55 PM on Thursday 23 Oct 2014 (Local Time) from KCKP Reporting Station
Clear Clear  
Wind Chill: 62°   Ceiling: Unl
Heat Index: 62°   Visibility: 10mi
Dew Point: 58°   Wind: 5mph
Humidity: 86%   Direction: 210°SSW
Pressure: 30.04"   Gusts: NA
Location:  42.75°N, 95.55°W
Report Text: KCKP 231755Z AUTO 21004KT 10SM CLR 17/14 A3004 RMK AO2 T01650142 10165 20096
Loading
Personal Weather Stations






























Interactive Weather Map
Tropical Storm Tracking
New forecast layout! Learn more

10-Day Weather Forecast

Advertisements
Track Severe Weather on mobile